Sunset Island, Florida
Current Conditions -  °F | °C
As of 3:53 PM on Tuesday 21 Oct 2014 (Local Time) from KMIA Reporting Station
Overcast Overcast  
Wind Chill: 77°   Ceiling: 13000
Heat Index: 78°   Visibility: 10mi
Dew Point: 72°   Wind: 9mph
Humidity: 84%   Direction: 260°W
Pressure: 29.91"   Gusts: NA
Location:  25.8181°N, 80.1301°W
Report Text: KMIA 211953Z 26008KT 10SM SCT014 BKN130 OVC200 25/22 A2991 RMK AO2 RAE05 SLP129 P0000 T02500222
Loading
Personal Weather Stations






























Interactive Weather Map
Tropical Storm Tracking
New forecast layout! Learn more

10-Day Weather Forecast

Advertisements
Track Severe Weather on mobile